Aplicació Alertes

Dades de l'estació automàtica Ulldecona - els Valentins

?
?
Resum diari 23:00 TU
Dades diàries de l'estació meteorològica
Temperatura mitjana 18.7 °C
Temperatura màxima 22.3 °C 11:24 TU
Temperatura mínima 16.9 °C 23:23 TU
Humitat relativa mitjana 46%
Precipitació acumulada 0.0 mm
Ratxa màxima del vent (2 m) 60.1 km/h - 253º 0:48 TU
Irradiació solar global 10.4 MJ/m2

El tram horari està expressat en Temps Universal (TU). Cal sumar una hora en horari d'hivern i dues en horari d'estiu per passar a l'hora oficial.

Ulldecona - els Valentins

Metadades estació meteorol´gica
Municipi Ulldecona
Comarca Montsià
Altitud 210 m
Data alta 15.11.1990
Estat actual Operativa
Dades de període
Període
TU
TM
°C
TX
°C
TN
°C
HRM
%
PPT
mm
VVM (2 m)
km/h
DVM (2 m)
graus
VVX (2 m)
km/h
RS
W/m2
00:00 - 00:30 17.3 17.5 17.1 47 0.0 28.1 290 50.0 0
00:30 - 01:00 17.1 17.2 16.9 48 0.0 28.4 294 60.1 0
01:00 - 01:30 17.0 17.2 16.9 49 0.0 20.5 300 44.6 0
01:30 - 02:00 17.1 17.3 16.9 49 0.0 10.8 310 31.7 0
02:00 - 02:30 17.3 17.4 17.2 48 0.0 18.0 301 47.2 0
02:30 - 03:00 17.4 17.5 17.3 48 0.0 16.6 312 45.0 0
03:00 - 03:30 17.4 17.5 17.3 48 0.0 21.6 300 55.8 0
03:30 - 04:00 17.3 17.4 17.2 49 0.0 18.7 304 44.3 0
04:00 - 04:30 17.2 17.4 17.0 51 0.0 20.9 296 55.8 0
04:30 - 05:00 17.4 17.6 17.3 49 0.0 24.8 289 46.1 0
05:00 - 05:30 17.7 17.9 17.5 48 0.0 26.3 289 53.3 0
05:30 - 06:00 17.7 17.9 17.6 48 0.0 19.4 301 51.1 0
06:00 - 06:30 17.9 18.1 17.7 48 0.0 12.6 304 43.2 0
06:30 - 07:00 18.1 18.3 17.8 47 0.0 8.3 318 31.0 0
07:00 - 07:30 18.2 18.4 17.8 46 0.0 7.9 211 27.4 7
07:30 - 08:00 19.0 19.3 18.5 43 0.0 11.2 288 34.2 27
08:00 - 08:30 19.2 19.8 19.0 41 0.0 15.8 285 38.5 78
08:30 - 09:00 19.4 19.9 19.1 41 0.0 16.6 294 40.3 187
09:00 - 09:30 19.6 20.1 19.3 42 0.0 9.4 296 36.0 204
09:30 - 10:00 19.8 20.1 19.7 42 0.0 7.6 327 27.0 260
10:00 - 10:30 19.4 19.9 19.1 43 0.0 8.6 344 32.8 187
10:30 - 11:00 19.8 20.7 19.1 42 0.0 13.0 315 38.9 408
11:00 - 11:30 21.4 22.3 20.6 39 0.0 7.6 288 29.5 627
11:30 - 12:00 21.4 21.8 20.9 39 0.0 11.2 298 25.9 575
12:00 - 12:30 21.7 22.2 21.2 39 0.0 11.5 302 29.2 561
12:30 - 13:00 21.5 22.2 21.1 39 0.0 14.4 304 33.5 518
13:00 - 13:30 21.3 21.8 21.0 40 0.0 14.0 305 42.5 485
13:30 - 14:00 21.9 22.2 21.4 39 0.0 6.5 319 27.4 439
14:00 - 14:30 22.0 22.2 21.8 39 0.0 5.8 292 19.1 376
14:30 - 15:00 21.8 22.2 21.4 39 0.0 13.0 293 28.1 308
15:00 - 15:30 21.5 21.9 21.3 40 0.0 13.0 295 28.8 248
15:30 - 16:00 20.7 21.3 20.3 43 0.0 13.3 298 29.9 173
16:00 - 16:30 20.0 20.2 19.8 46 0.0 8.6 314 21.2 102
16:30 - 17:00 19.4 19.7 18.9 48 0.0 7.6 339 30.2 26
17:00 - 17:30 18.7 18.8 18.4 50 0.0 18.0 293 44.6 2
17:30 - 18:00 18.3 18.5 18.2 51 0.0 22.3 281 45.0 0
18:00 - 18:30 18.1 18.3 17.9 50 0.0 18.0 271 53.6 0
18:30 - 19:00 18.1 18.2 17.9 50 0.0 10.1 303 36.0 0
19:00 - 19:30 17.7 17.8 17.5 51 0.0 10.8 293 39.6 0
19:30 - 20:00 17.4 17.5 17.2 53 0.0 16.2 278 40.0 0
20:00 - 20:30 17.3 17.5 17.2 52 0.0 16.2 278 37.4 0
20:30 - 21:00 17.0 17.2 16.9 54 0.0 16.9 282 38.5 0
21:00 - 21:30 17.1 17.3 16.9 52 0.0 16.9 289 37.4 0
21:30 - 22:00 17.2 17.3 17.0 51 0.0 14.0 294 33.5 0
22:00 - 22:30 17.3 17.3 17.2 51 0.0 16.6 297 40.0 0
22:30 - 23:00 17.0 17.1 17.0 52 0.0 20.9 288 44.3 0
23:00 - 23:30 17.1 17.2 16.9 51 0.0 18.4 284 45.7 0

Les dades en taronja només han passat un control de qualitat automàtic. Resta pendent la seva validació definitiva.